Time;durP1;ratioP1;P1;durP2;ratioP2;P2;SDS_P1;SDS_P2;PMS_P1;PMS_P2;Temp;Humidity;BMP_temperature;BMP_pressure;BME280_temperature;BME280_humidity;BME280_pressure;Samples;Min_cycle;Max_cycle;Signal;HPM_P1;HPM_P2
2023/05/24 00:01:06;;;;;;;11.10;7.70;;;;;;;;;;5055598;28;21216;-67
2023/05/24 00:03:38;;;;;;;11.90;7.20;;;;;;;;;;5059795;28;20625;-65
2023/05/24 00:06:06;;;;;;;12.40;8.60;;;;;;;;;;5071784;28;20606;-65
2023/05/24 00:08:35;;;;;;;7.43;6.83;;;;;;;;;;5055297;28;20568;-64
2023/05/24 00:11:04;;;;;;;8.57;7.63;;;;;;;;;;5066142;28;20696;-64
2023/05/24 00:13:32;;;;;;;7.97;7.27;;;;;;;;;;5059422;28;20626;-65
2023/05/24 00:16:01;;;;;;;9.30;6.97;;;;;;;;;;5054990;28;20604;-64
2023/05/24 00:18:30;;;;;;;9.73;7.50;;;;;;;;;;5064890;28;21202;-64
2023/05/24 00:20:58;;;;;;;11.97;8.17;;;;;;;;;;5071406;28;20991;-64
2023/05/24 00:23:26;;;;;;;8.97;7.30;;;;;;;;;;5070075;28;20612;-64
2023/05/24 00:25:54;;;;;;;11.40;9.73;;;;;;;;;;5054262;28;20963;-64
2023/05/24 00:28:24;;;;;;;11.40;9.13;;;;;;;;;;5052973;28;21196;-64
2023/05/24 00:30:53;;;;;;;14.67;8.43;;;;;;;;;;5067955;28;20944;-64
2023/05/24 00:33:22;;;;;;;19.17;8.67;;;;;;;;;;5058109;28;20626;-65
2023/05/24 00:35:55;;;;;;;9.17;8.27;;;;;;;;;;5058746;28;20601;-64
2023/05/24 00:38:23;;;;;;;9.98;7.50;;;;;;;;;;5072615;28;20657;-64
2023/05/24 00:40:56;;;;;;;8.83;6.97;;;;;;;;;;5053716;28;20197;-64
2023/05/24 00:43:25;;;;;;;11.13;7.40;;;;;;;;;;5053557;28;20635;-66
2023/05/24 00:46:01;;;;;;;15.70;7.40;;;;;;;;;;5053499;28;20201;-64
2023/05/24 00:48:29;;;;;;;11.35;7.68;;;;;;;;;;5054632;28;20191;-64
2023/05/24 00:50:58;;;;;;;11.50;7.90;;;;;;;;;;5053456;28;20211;-64
2023/05/24 00:53:26;;;;;;;9.82;6.97;;;;;;;;;;5054452;28;20598;-64
2023/05/24 00:55:54;;;;;;;8.95;6.88;;;;;;;;;;5052269;28;20211;-65
2023/05/24 00:58:25;;;;;;;6.43;5.80;;;;;;;;;;5054033;28;20278;-64
2023/05/24 01:00:58;;;;;;;9.37;6.50;;;;;;;;;;5054699;28;20626;-64
2023/05/24 01:03:27;;;;;;;10.70;6.03;;;;;;;;;;5057417;28;20652;-63
2023/05/24 01:05:56;;;;;;;13.00;6.70;;;;;;;;;;5058727;28;20596;-63
2023/05/24 01:08:37;;;;;;;8.50;6.10;;;;;;;;;;5059440;28;20705;-63
2023/05/24 01:11:07;;;;;;;8.23;6.65;;;;;;;;;;5058828;28;20731;-62
2023/05/24 01:13:39;;;;;;;10.10;6.03;;;;;;;;;;5074806;28;20279;-63
2023/05/24 01:16:11;;;;;;;11.85;6.72;;;;;;;;;;5077912;28;20405;-64
2023/05/24 01:18:42;;;;;;;8.07;5.80;;;;;;;;;;5076042;28;20261;-63
2023/05/24 01:21:16;;;;;;;10.63;5.65;;;;;;;;;;5063248;28;20764;-64
2023/05/24 01:23:47;;;;;;;11.10;6.10;;;;;;;;;;5075812;28;20373;-63
2023/05/24 01:26:21;;;;;;;12.48;5.68;;;;;;;;;;5066383;28;20275;-64
2023/05/24 01:28:50;;;;;;;13.43;5.65;;;;;;;;;;5079024;28;20309;-63
2023/05/24 01:31:19;;;;;;;8.88;5.68;;;;;;;;;;5061625;28;20256;-65
2023/05/24 01:33:50;;;;;;;7.97;5.38;;;;;;;;;;5059353;28;20279;-63
2023/05/24 01:36:21;;;;;;;9.32;5.25;;;;;;;;;;5058825;28;20284;-64
2023/05/24 01:38:49;;;;;;;11.25;5.72;;;;;;;;;;5058645;28;20220;-63
2023/05/24 01:41:23;;;;;;;8.23;6.47;;;;;;;;;;5057855;28;20204;-63
2023/05/24 01:43:56;;;;;;;9.10;5.82;;;;;;;;;;5058900;28;20276;-63
2023/05/24 01:46:29;;;;;;;9.23;5.45;;;;;;;;;;5057936;28;20671;-66
2023/05/24 01:49:01;;;;;;;8.00;5.53;;;;;;;;;;5061526;28;20276;-64
2023/05/24 01:51:31;;;;;;;9.10;5.70;;;;;;;;;;5075518;28;20252;-63
2023/05/24 01:53:59;;;;;;;10.40;5.87;;;;;;;;;;5062653;28;20650;-64
2023/05/24 01:56:28;;;;;;;10.35;5.32;;;;;;;;;;5058821;28;20723;-63
2023/05/24 01:58:59;;;;;;;6.78;6.07;;;;;;;;;;5058287;28;20636;-63
2023/05/24 02:01:27;;;;;;;13.13;5.83;;;;;;;;;;5073916;28;20282;-62
2023/05/24 02:03:56;;;;;;;12.40;6.30;;;;;;;;;;5057516;28;20741;-64
2023/05/24 02:06:24;;;;;;;9.52;6.32;;;;;;;;;;5059595;28;20323;-63
2023/05/24 02:08:52;;;;;;;19.08;7.28;;;;;;;;;;5075705;28;20297;-63
2023/05/24 02:11:21;;;;;;;10.93;5.90;;;;;;;;;;5073474;28;20393;-63
2023/05/24 02:13:50;;;;;;;10.00;4.93;;;;;;;;;;5078144;28;20690;-63
2023/05/24 02:16:19;;;;;;;11.20;6.20;;;;;;;;;;5067639;28;20673;-63
2023/05/24 02:18:49;;;;;;;10.25;5.43;;;;;;;;;;5057096;28;20208;-63
2023/05/24 02:21:17;;;;;;;11.50;5.60;;;;;;;;;;5065811;28;20202;-63
2023/05/24 02:23:45;;;;;;;9.50;6.13;;;;;;;;;;5065012;28;20283;-65
2023/05/24 02:26:14;;;;;;;10.13;5.45;;;;;;;;;;5073429;28;20721;-63
2023/05/24 02:28:42;;;;;;;10.02;4.95;;;;;;;;;;5057803;28;20722;-63
2023/05/24 02:31:10;;;;;;;10.45;5.20;;;;;;;;;;5057662;28;20275;-63
2023/05/24 02:33:40;;;;;;;7.68;4.78;;;;;;;;;;5058078;28;20275;-64
2023/05/24 02:36:08;;;;;;;10.65;5.43;;;;;;;;;;5057591;28;20267;-64
2023/05/24 02:38:37;;;;;;;10.43;4.80;;;;;;;;;;5057468;28;20216;-64
2023/05/24 02:41:05;;;;;;;9.05;5.68;;;;;;;;;;5056939;28;20287;-64
2023/05/24 02:43:33;;;;;;;8.02;4.50;;;;;;;;;;5057768;28;20292;-64
2023/05/24 02:46:01;;;;;;;12.73;5.35;;;;;;;;;;5058193;28;20322;-63
2023/05/24 02:48:30;;;;;;;9.10;5.75;;;;;;;;;;5057871;28;20279;-63
2023/05/24 02:51:01;;;;;;;7.18;5.00;;;;;;;;;;5056591;28;20207;-63
2023/05/24 02:53:30;;;;;;;5.95;5.10;;;;;;;;;;5057798;28;20272;-63
2023/05/24 02:55:58;;;;;;;10.50;5.35;;;;;;;;;;5060216;28;20282;-61
2023/05/24 02:58:27;;;;;;;8.32;4.40;;;;;;;;;;5057339;28;20486;-62
2023/05/24 03:00:56;;;;;;;16.58;5.38;;;;;;;;;;5057819;28;20287;-62
2023/05/24 03:03:25;;;;;;;7.72;4.63;;;;;;;;;;5055259;28;20334;-63
2023/05/24 03:05:53;;;;;;;7.45;4.70;;;;;;;;;;5055988;28;20294;-62
2023/05/24 03:08:23;;;;;;;8.50;4.30;;;;;;;;;;5056543;28;20346;-63
2023/05/24 03:10:52;;;;;;;7.82;4.32;;;;;;;;;;5056804;28;20256;-62
2023/05/24 03:13:20;;;;;;;11.73;4.60;;;;;;;;;;5055662;28;20212;-62
2023/05/24 03:15:49;;;;;;;10.60;4.78;;;;;;;;;;5057822;28;20711;-63
2023/05/24 03:18:17;;;;;;;8.02;4.75;;;;;;;;;;5058325;28;20299;-62
2023/05/24 03:20:46;;;;;;;8.48;5.20;;;;;;;;;;5076813;28;20680;-63
2023/05/24 03:23:15;;;;;;;10.57;5.30;;;;;;;;;;5076968;28;20718;-63
2023/05/24 03:25:45;;;;;;;7.22;4.38;;;;;;;;;;5077409;28;20708;-62
2023/05/24 03:28:15;;;;;;;12.50;5.07;;;;;;;;;;5074954;28;20263;-63
2023/05/24 03:30:44;;;;;;;13.60;4.97;;;;;;;;;;5076839;28;20263;-62
2023/05/24 03:33:13;;;;;;;12.55;5.13;;;;;;;;;;5075489;28;20210;-63
2023/05/24 03:35:42;;;;;;;10.63;5.20;;;;;;;;;;5076219;28;20279;-62
2023/05/24 03:38:10;;;;;;;12.50;5.65;;;;;;;;;;5075775;28;20226;-64
2023/05/24 03:40:41;;;;;;;10.68;5.60;;;;;;;;;;5076723;28;20267;-62
2023/05/24 03:43:17;;;;;;;12.55;5.32;;;;;;;;;;5076842;28;20279;-62
2023/05/24 03:45:56;;;;;;;14.65;4.22;;;;;;;;;;5076981;28;20248;-62
2023/05/24 03:48:24;;;;;;;19.85;5.50;;;;;;;;;;5077410;28;20282;-64
2023/05/24 03:50:53;;;;;;;13.48;5.75;;;;;;;;;;5070898;28;20306;-63
2023/05/24 03:53:22;;;;;;;16.40;5.50;;;;;;;;;;5077643;28;20283;-64
2023/05/24 03:55:50;;;;;;;6.55;4.35;;;;;;;;;;5077465;28;20658;-62
2023/05/24 03:58:20;;;;;;;8.60;4.65;;;;;;;;;;5076283;28;20294;-63
2023/05/24 04:00:48;;;;;;;8.45;4.50;;;;;;;;;;5076707;28;20263;-62
2023/05/24 04:03:18;;;;;;;13.05;5.35;;;;;;;;;;5075927;28;20282;-62
2023/05/24 04:05:47;;;;;;;13.23;4.80;;;;;;;;;;5075445;28;20244;-63
2023/05/24 04:08:15;;;;;;;9.80;4.78;;;;;;;;;;5076066;28;20287;-63
2023/05/24 04:10:43;;;;;;;8.40;4.40;;;;;;;;;;5071032;28;20280;-61
2023/05/24 04:13:13;;;;;;;14.13;4.53;;;;;;;;;;5059753;28;20283;-61
2023/05/24 04:15:42;;;;;;;9.80;4.38;;;;;;;;;;5060577;28;20295;-62
2023/05/24 04:18:11;;;;;;;10.30;4.50;;;;;;;;;;5074787;28;20280;-62
2023/05/24 04:20:40;;;;;;;7.20;3.75;;;;;;;;;;5080858;28;20259;-62
2023/05/24 04:23:10;;;;;;;7.43;4.50;;;;;;;;;;5079347;28;20184;-62
2023/05/24 04:25:39;;;;;;;16.65;4.78;;;;;;;;;;5080029;28;20283;-62
2023/05/24 04:28:08;;;;;;;5.50;3.40;;;;;;;;;;5079613;28;20288;-64
2023/05/24 04:30:36;;;;;;;12.23;4.35;;;;;;;;;;5079019;28;20283;-65
2023/05/24 04:33:07;;;;;;;10.88;4.90;;;;;;;;;;5068775;28;20621;-62
2023/05/24 04:35:35;;;;;;;13.82;5.45;;;;;;;;;;5059077;28;20268;-63
2023/05/24 04:38:03;;;;;;;19.85;3.63;;;;;;;;;;5059860;28;20211;-62
2023/05/24 04:40:32;;;;;;;9.05;4.55;;;;;;;;;;5059425;28;20295;-62
2023/05/24 04:43:00;;;;;;;7.38;4.22;;;;;;;;;;5060247;28;20303;-62
2023/05/24 04:45:29;;;;;;;13.02;5.40;;;;;;;;;;5059929;28;20265;-64
2023/05/24 04:47:57;;;;;;;9.43;3.95;;;;;;;;;;5060429;28;20314;-63
2023/05/24 04:50:27;;;;;;;11.20;4.63;;;;;;;;;;5058289;28;20205;-66
2023/05/24 04:52:56;;;;;;;18.65;5.05;;;;;;;;;;5060069;28;20268;-63
2023/05/24 04:55:24;;;;;;;11.27;4.70;;;;;;;;;;5059624;28;20283;-63
2023/05/24 04:57:52;;;;;;;11.45;4.72;;;;;;;;;;5076254;28;20282;-63
2023/05/24 05:00:21;;;;;;;6.30;3.80;;;;;;;;;;5060348;28;20220;-63
2023/05/24 05:02:49;;;;;;;4.72;3.42;;;;;;;;;;5067588;28;20209;-69
2023/05/24 05:05:18;;;;;;;15.45;4.55;;;;;;;;;;5059540;28;20210;-69
2023/05/24 05:07:48;;;;;;;13.55;4.90;;;;;;;;;;5062636;28;20244;-69
2023/05/24 05:10:16;;;;;;;6.65;4.57;;;;;;;;;;5053751;28;20213;-69
2023/05/24 05:12:45;;;;;;;15.43;4.70;;;;;;;;;;5054969;28;20204;-69
2023/05/24 05:15:13;;;;;;;12.00;4.90;;;;;;;;;;5052904;28;20220;-69
2023/05/24 05:17:41;;;;;;;7.13;3.83;;;;;;;;;;5052931;28;20201;-70
2023/05/24 05:20:09;;;;;;;13.38;5.10;;;;;;;;;;5069628;28;20212;-70
2023/05/24 05:22:37;;;;;;;15.82;6.13;;;;;;;;;;5071338;28;20210;-69
2023/05/24 05:25:08;;;;;;;15.48;4.45;;;;;;;;;;5062148;28;20206;-67
2023/05/24 05:27:36;;;;;;;10.63;4.55;;;;;;;;;;5060615;28;20196;-67
2023/05/24 05:30:04;;;;;;;8.02;3.95;;;;;;;;;;5057258;28;20203;-69
2023/05/24 05:32:33;;;;;;;13.38;5.05;;;;;;;;;;5053800;28;20196;-69
2023/05/24 05:35:01;;;;;;;13.43;4.85;;;;;;;;;;5051600;28;20197;-69
2023/05/24 05:37:30;;;;;;;13.50;4.13;;;;;;;;;;5057537;28;20207;-69
2023/05/24 05:39:58;;;;;;;8.95;4.00;;;;;;;;;;5063956;28;20217;-69
2023/05/24 05:42:27;;;;;;;11.25;4.15;;;;;;;;;;5052907;28;20212;-69
2023/05/24 05:44:56;;;;;;;9.75;4.45;;;;;;;;;;5056180;28;20790;-68
2023/05/24 05:47:24;;;;;;;9.40;3.85;;;;;;;;;;5060693;28;20208;-70
2023/05/24 05:49:52;;;;;;;9.40;4.20;;;;;;;;;;5070914;28;20235;-68
2023/05/24 05:52:20;;;;;;;10.50;5.10;;;;;;;;;;5070260;28;20267;-67
2023/05/24 05:54:48;;;;;;;9.68;4.20;;;;;;;;;;5078028;28;20609;-69
2023/05/24 05:57:22;;;;;;;10.30;4.15;;;;;;;;;;5075944;28;20203;-70
2023/05/24 05:59:52;;;;;;;15.27;4.88;;;;;;;;;;5076112;28;20200;-68
2023/05/24 06:02:21;;;;;;;9.82;4.28;;;;;;;;;;5078581;28;20287;-66
2023/05/24 06:04:50;;;;;;;23.52;5.32;;;;;;;;;;5082142;28;20283;-67
2023/05/24 06:07:18;;;;;;;11.95;5.15;;;;;;;;;;5079660;28;20750;-66
2023/05/24 06:09:47;;;;;;;9.23;4.55;;;;;;;;;;5082482;28;20302;-67
2023/05/24 06:12:16;;;;;;;12.02;3.83;;;;;;;;;;5081303;28;20284;-64
2023/05/24 06:14:44;;;;;;;15.75;5.32;;;;;;;;;;5073214;28;20367;-64
2023/05/24 06:17:13;;;;;;;8.23;4.03;;;;;;;;;;5076367;28;20339;-65
2023/05/24 06:19:42;;;;;;;13.93;5.28;;;;;;;;;;5065259;28;20647;-64
2023/05/24 06:22:11;;;;;;;9.27;5.10;;;;;;;;;;5060464;28;20291;-65
2023/05/24 06:24:39;;;;;;;17.02;4.75;;;;;;;;;;5059362;28;20260;-66
2023/05/24 06:27:07;;;;;;;14.70;4.55;;;;;;;;;;5058245;28;20283;-64
2023/05/24 06:29:36;;;;;;;11.43;4.93;;;;;;;;;;5057946;28;20257;-69
2023/05/24 06:32:04;;;;;;;4.88;4.32;;;;;;;;;;5062583;28;20362;-66
2023/05/24 06:34:34;;;;;;;12.73;4.70;;;;;;;;;;5052415;28;20204;-66
2023/05/24 06:37:02;;;;;;;8.00;4.30;;;;;;;;;;5053866;28;20573;-65
2023/05/24 06:39:30;;;;;;;6.05;4.25;;;;;;;;;;5062654;28;20284;-65
2023/05/24 06:41:58;;;;;;;8.82;5.10;;;;;;;;;;5064005;28;20260;-65
2023/05/24 06:44:32;;;;;;;16.45;6.35;;;;;;;;;;5062476;28;20260;-66
2023/05/24 06:47:01;;;;;;;10.68;4.63;;;;;;;;;;5053822;28;20181;-69
2023/05/24 06:49:29;;;;;;;8.52;5.20;;;;;;;;;;5051509;28;20208;-71
2023/05/24 06:51:58;;;;;;;14.32;5.35;;;;;;;;;;5055046;28;20201;-67
2023/05/24 06:54:27;;;;;;;12.75;4.93;;;;;;;;;;5061170;28;20260;-67
2023/05/24 06:56:55;;;;;;;16.52;4.88;;;;;;;;;;5055180;28;20288;-69
2023/05/24 06:59:24;;;;;;;12.70;4.85;;;;;;;;;;5054685;28;20200;-69
2023/05/24 07:01:56;;;;;;;6.40;4.80;;;;;;;;;;5071615;28;20204;-69
2023/05/24 07:04:24;;;;;;;12.93;5.00;;;;;;;;;;5070385;28;20334;-72
2023/05/24 07:06:53;;;;;;;10.43;5.70;;;;;;;;;;5071868;28;20236;-71
2023/05/24 07:09:22;;;;;;;11.77;4.47;;;;;;;;;;5072228;28;20224;-70
2023/05/24 07:11:51;;;;;;;10.68;4.97;;;;;;;;;;5069794;28;20210;-70
2023/05/24 07:14:19;;;;;;;13.43;5.60;;;;;;;;;;5052320;28;20265;-69
2023/05/24 07:16:48;;;;;;;6.00;4.25;;;;;;;;;;5053129;28;20208;-71
2023/05/24 07:19:16;;;;;;;8.10;4.82;;;;;;;;;;5051402;28;20204;-71
2023/05/24 07:21:44;;;;;;;20.77;5.60;;;;;;;;;;5050620;28;20204;-71
2023/05/24 07:24:13;;;;;;;20.25;5.65;;;;;;;;;;5051191;28;20200;-69
2023/05/24 07:26:42;;;;;;;10.63;5.53;;;;;;;;;;5052621;28;20208;-70
2023/05/24 07:29:10;;;;;;;8.68;5.50;;;;;;;;;;5051365;28;20200;-70
2023/05/24 07:31:38;;;;;;;15.30;7.43;;;;;;;;;;5049503;28;20500;-69
2023/05/24 07:34:07;;;;;;;13.98;6.10;;;;;;;;;;5050892;28;20204;-68
2023/05/24 07:36:35;;;;;;;8.60;5.53;;;;;;;;;;5052693;28;20570;-70
2023/05/24 07:39:05;;;;;;;9.47;6.00;;;;;;;;;;5050641;28;21151;-70
2023/05/24 07:41:33;;;;;;;9.30;6.15;;;;;;;;;;5058047;28;20995;-69
2023/05/24 07:44:02;;;;;;;12.80;6.63;;;;;;;;;;5052640;28;20204;-70
2023/05/24 07:46:31;;;;;;;16.17;6.40;;;;;;;;;;5054946;28;20618;-70
2023/05/24 07:48:59;;;;;;;11.57;6.40;;;;;;;;;;5054842;28;21168;-69
2023/05/24 07:51:28;;;;;;;6.40;5.90;;;;;;;;;;5055566;28;20609;-68
2023/05/24 07:53:56;;;;;;;8.20;6.47;;;;;;;;;;5059900;28;21002;-69
2023/05/24 07:56:24;;;;;;;13.87;6.50;;;;;;;;;;5058493;28;21244;-69
2023/05/24 07:58:58;;;;;;;7.83;6.90;;;;;;;;;;5057731;28;20643;-68
2023/05/24 08:01:27;;;;;;;11.43;6.50;;;;;;;;;;5056420;28;21237;-67
2023/05/24 08:03:56;;;;;;;11.10;7.30;;;;;;;;;;5054148;28;21380;-70
2023/05/24 08:06:24;;;;;;;16.87;7.20;;;;;;;;;;5054714;28;20617;-71
2023/05/24 08:08:52;;;;;;;12.40;7.00;;;;;;;;;;5056332;28;20598;-70
2023/05/24 08:11:21;;;;;;;11.57;6.97;;;;;;;;;;5056437;28;20608;-72
2023/05/24 08:13:49;;;;;;;11.23;8.07;;;;;;;;;;5058053;28;20622;-70
2023/05/24 08:16:17;;;;;;;10.67;7.63;;;;;;;;;;5054423;28;20853;-71
2023/05/24 08:18:47;;;;;;;14.27;6.40;;;;;;;;;;5055364;28;20619;-69
2023/05/24 08:21:16;;;;;;;8.80;7.10;;;;;;;;;;5055846;28;20732;-70
2023/05/24 08:23:44;;;;;;;8.03;7.23;;;;;;;;;;5055214;28;20585;-70
2023/05/24 08:26:12;;;;;;;9.20;8.30;;;;;;;;;;5055202;28;20585;-70
2023/05/24 08:28:41;;;;;;;9.50;7.97;;;;;;;;;;5055197;28;20577;-69
2023/05/24 08:31:10;;;;;;;9.80;7.97;;;;;;;;;;5053699;28;21177;-69
2023/05/24 08:33:38;;;;;;;8.10;6.80;;;;;;;;;;5055402;28;20629;-69
2023/05/24 08:36:08;;;;;;;9.07;8.17;;;;;;;;;;5054101;28;20618;-70
2023/05/24 08:38:36;;;;;;;12.93;8.87;;;;;;;;;;5064244;28;20661;-67
2023/05/24 08:41:07;;;;;;;13.67;7.90;;;;;;;;;;5062179;28;20745;-68
2023/05/24 08:43:35;;;;;;;8.07;7.47;;;;;;;;;;5069554;28;20598;-69
2023/05/24 08:46:04;;;;;;;17.63;8.27;;;;;;;;;;5075099;28;20701;-69
2023/05/24 08:48:33;;;;;;;9.50;8.50;;;;;;;;;;5063931;28;20645;-69
2023/05/24 08:51:01;;;;;;;10.60;9.67;;;;;;;;;;5075453;28;20624;-68
2023/05/24 08:53:31;;;;;;;9.50;8.63;;;;;;;;;;5090366;28;20617;-68
2023/05/24 08:56:00;;;;;;;10.03;8.47;;;;;;;;;;5079970;28;20681;-68
2023/05/24 08:58:29;;;;;;;8.90;8.03;;;;;;;;;;5061092;28;20660;-69
2023/05/24 09:00:57;;;;;;;9.73;8.90;;;;;;;;;;5072694;28;20636;-70
2023/05/24 09:03:26;;;;;;;13.30;9.40;;;;;;;;;;5075309;28;20756;-67
2023/05/24 09:05:54;;;;;;;9.73;8.57;;;;;;;;;;5076047;28;20614;-70
2023/05/24 09:08:23;;;;;;;10.50;9.40;;;;;;;;;;5074074;28;21193;-71
2023/05/24 09:10:52;;;;;;;10.17;9.33;;;;;;;;;;5073284;28;20642;-69
2023/05/24 09:13:21;;;;;;;13.30;8.57;;;;;;;;;;5074243;28;20968;-68
2023/05/24 09:15:49;;;;;;;9.50;8.80;;;;;;;;;;5072916;28;20592;-69
2023/05/24 09:18:18;;;;;;;10.57;9.20;;;;;;;;;;5075652;28;20705;-70
2023/05/24 09:20:46;;;;;;;9.53;8.70;;;;;;;;;;5075229;28;20689;-69
2023/05/24 09:23:14;;;;;;;10.13;9.07;;;;;;;;;;5074286;28;20598;-71
2023/05/24 09:25:44;;;;;;;10.33;9.43;;;;;;;;;;5073535;28;20675;-69
2023/05/24 09:28:15;;;;;;;10.57;9.60;;;;;;;;;;5074020;28;20915;-69
2023/05/24 09:30:44;;;;;;;10.77;9.87;;;;;;;;;;5073770;28;20592;-69
2023/05/24 09:33:12;;;;;;;10.07;9.23;;;;;;;;;;5073081;28;20958;-70
2023/05/24 09:35:42;;;;;;;9.80;8.93;;;;;;;;;;5072670;28;20585;-69
2023/05/24 09:38:18;;;;;;;8.80;8.27;;;;;;;;;;5069649;28;20657;-66
2023/05/24 09:40:46;;;;;;;9.80;8.37;;;;;;;;;;5066963;28;20889;-67
2023/05/24 09:43:16;;;;;;;9.63;8.77;;;;;;;;;;5074252;28;20589;-67
2023/05/24 09:45:45;;;;;;;11.23;8.93;;;;;;;;;;5063488;28;20604;-70
2023/05/24 09:48:14;;;;;;;10.43;9.47;;;;;;;;;;5050336;28;20590;-69
2023/05/24 09:50:44;;;;;;;10.40;9.50;;;;;;;;;;5069937;28;20618;-70
2023/05/24 09:53:12;;;;;;;10.80;10.07;;;;;;;;;;5056121;28;20631;-68
2023/05/24 09:55:41;;;;;;;9.93;8.30;;;;;;;;;;5050909;28;20596;-67
2023/05/24 09:58:11;;;;;;;10.57;9.10;;;;;;;;;;5051596;28;20973;-68
2023/05/24 10:00:41;;;;;;;9.90;8.90;;;;;;;;;;5051913;28;20558;-67
2023/05/24 10:03:11;;;;;;;10.57;9.77;;;;;;;;;;5050764;28;20581;-68
2023/05/24 10:05:40;;;;;;;10.57;9.77;;;;;;;;;;5051113;28;20586;-67
2023/05/24 10:08:08;;;;;;;10.90;10.10;;;;;;;;;;5052111;28;20613;-67
2023/05/24 10:10:37;;;;;;;13.70;9.40;;;;;;;;;;5052463;28;21224;-67
2023/05/24 10:13:05;;;;;;;10.23;9.30;;;;;;;;;;5057903;28;21167;-68
2023/05/24 10:15:35;;;;;;;13.73;9.60;;;;;;;;;;5052488;28;20619;-68
2023/05/24 10:18:07;;;;;;;10.40;9.50;;;;;;;;;;5052178;28;20612;-68
2023/05/24 10:20:35;;;;;;;12.27;11.10;;;;;;;;;;5052683;28;20621;-68
2023/05/24 10:23:05;;;;;;;10.77;9.73;;;;;;;;;;5057640;28;20643;-67
2023/05/24 10:25:35;;;;;;;10.00;9.20;;;;;;;;;;5060634;28;20611;-67
2023/05/24 10:28:05;;;;;;;10.23;9.60;;;;;;;;;;5061239;28;20625;-67
2023/05/24 10:30:36;;;;;;;10.33;9.47;;;;;;;;;;5072702;28;20589;-68
2023/05/24 10:33:07;;;;;;;11.03;9.70;;;;;;;;;;5065623;28;20596;-68
2023/05/24 10:35:37;;;;;;;10.10;9.40;;;;;;;;;;5059979;28;20568;-68
2023/05/24 10:38:07;;;;;;;10.90;9.90;;;;;;;;;;5053720;28;20627;-67
2023/05/24 10:40:35;;;;;;;11.87;9.50;;;;;;;;;;5062672;28;20602;-67
2023/05/24 10:43:05;;;;;;;10.57;9.50;;;;;;;;;;5061533;28;20662;-67
2023/05/24 10:45:34;;;;;;;10.37;9.70;;;;;;;;;;5060543;28;20608;-66
2023/05/24 10:48:09;;;;;;;10.47;9.77;;;;;;;;;;5052082;28;20623;-67
2023/05/24 10:50:38;;;;;;;12.37;10.67;;;;;;;;;;5051027;28;20603;-69
2023/05/24 10:53:13;;;;;;;21.80;10.17;;;;;;;;;;5051249;28;20615;-67
2023/05/24 10:55:52;;;;;;;11.60;10.40;;;;;;;;;;5058696;28;20594;-68
2023/05/24 10:58:20;;;;;;;10.80;9.90;;;;;;;;;;5051184;28;20601;-67
2023/05/24 11:00:52;;;;;;;10.43;9.53;;;;;;;;;;5050508;28;20973;-68
2023/05/24 11:03:23;;;;;;;10.43;9.60;;;;;;;;;;5050174;28;20651;-68
2023/05/24 11:05:54;;;;;;;12.40;9.87;;;;;;;;;;5048811;28;20640;-69
2023/05/24 11:08:24;;;;;;;10.87;10.03;;;;;;;;;;5050472;28;20647;-68
2023/05/24 11:11:04;;;;;;;15.10;10.77;;;;;;;;;;5050524;28;20989;-68
2023/05/24 11:13:32;;;;;;;11.80;10.77;;;;;;;;;;5049561;28;21175;-68
2023/05/24 11:16:00;;;;;;;12.73;11.47;;;;;;;;;;5064311;28;20622;-69
2023/05/24 11:18:28;;;;;;;10.73;9.93;;;;;;;;;;5069849;28;20618;-69
2023/05/24 11:21:00;;;;;;;11.80;10.53;;;;;;;;;;5051132;28;20982;-69
2023/05/24 11:23:29;;;;;;;12.27;11.07;;;;;;;;;;5053666;28;21203;-69
2023/05/24 11:25:57;;;;;;;12.63;10.63;;;;;;;;;;5050762;28;20970;-69
2023/05/24 11:28:26;;;;;;;11.70;10.63;;;;;;;;;;5050044;28;20978;-69
2023/05/24 11:30:54;;;;;;;12.40;11.30;;;;;;;;;;5051744;28;20990;-69
2023/05/24 11:33:23;;;;;;;12.67;11.60;;;;;;;;;;5049274;28;20624;-69
2023/05/24 11:35:51;;;;;;;11.90;10.90;;;;;;;;;;5057500;28;20623;-69
2023/05/24 11:38:21;;;;;;;12.73;11.57;;;;;;;;;;5058663;28;20627;-69
2023/05/24 11:40:51;;;;;;;12.03;11.23;;;;;;;;;;5064048;28;20591;-68
2023/05/24 11:43:20;;;;;;;12.40;11.30;;;;;;;;;;5061097;28;20676;-68
2023/05/24 11:45:50;;;;;;;12.03;10.97;;;;;;;;;;5064351;28;20632;-70
2023/05/24 11:48:19;;;;;;;12.50;11.07;;;;;;;;;;5065605;28;21210;-68
2023/05/24 11:50:48;;;;;;;12.90;11.70;;;;;;;;;;5063585;28;20627;-69
2023/05/24 11:53:17;;;;;;;11.87;10.97;;;;;;;;;;5063313;28;20656;-70
2023/05/24 11:55:47;;;;;;;13.00;11.67;;;;;;;;;;5070602;28;21195;-69
2023/05/24 11:58:25;;;;;;;11.33;10.50;;;;;;;;;;5051542;28;20611;-69
2023/05/24 12:00:53;;;;;;;11.40;10.50;;;;;;;;;;5061263;28;20606;-70
2023/05/24 12:03:21;;;;;;;11.67;10.97;;;;;;;;;;5063497;28;20651;-70
2023/05/24 12:05:50;;;;;;;11.70;10.77;;;;;;;;;;5062562;28;21172;-70
2023/05/24 12:08:19;;;;;;;11.97;11.07;;;;;;;;;;5052842;28;20723;-69
2023/05/24 12:10:50;;;;;;;12.23;11.17;;;;;;;;;;5056180;28;20711;-69
2023/05/24 12:13:21;;;;;;;11.47;10.67;;;;;;;;;;5057297;28;20598;-69
2023/05/24 12:15:51;;;;;;;11.73;10.80;;;;;;;;;;5070753;28;20608;-68
2023/05/24 12:18:19;;;;;;;11.67;10.80;;;;;;;;;;5062532;28;21214;-70
2023/05/24 12:20:49;;;;;;;12.07;11.20;;;;;;;;;;5065334;28;20652;-68
2023/05/24 12:23:17;;;;;;;11.43;10.80;;;;;;;;;;5070437;28;21021;-71
2023/05/24 12:25:46;;;;;;;11.60;10.80;;;;;;;;;;5070039;28;20626;-69
2023/05/24 12:28:17;;;;;;;11.83;10.90;;;;;;;;;;5069613;28;20622;-69
2023/05/24 12:30:46;;;;;;;13.27;11.73;;;;;;;;;;5050409;28;20992;-67
2023/05/24 12:33:14;;;;;;;11.93;11.13;;;;;;;;;;5069678;28;20674;-70
2023/05/24 12:35:42;;;;;;;17.23;12.27;;;;;;;;;;5065549;28;20623;-69
2023/05/24 12:38:10;;;;;;;14.30;11.50;;;;;;;;;;5054861;28;20623;-69
2023/05/24 12:40:42;;;;;;;12.27;11.37;;;;;;;;;;5059066;28;21191;-70
2023/05/24 12:43:11;;;;;;;12.80;11.60;;;;;;;;;;5072898;28;21279;-69
2023/05/24 12:45:40;;;;;;;11.30;10.60;;;;;;;;;;5058066;28;20621;-69
2023/05/24 12:48:09;;;;;;;12.00;11.00;;;;;;;;;;5040507;28;21051;-69
2023/05/24 12:50:37;;;;;;;12.67;11.67;;;;;;;;;;5059370;28;20683;-70
2023/05/24 12:53:05;;;;;;;12.00;11.20;;;;;;;;;;5069684;28;21027;-69
2023/05/24 12:55:33;;;;;;;11.83;10.90;;;;;;;;;;5073172;28;20630;-69
2023/05/24 12:58:05;;;;;;;10.90;10.05;;;;;;;;;;5060551;28;20780;-70
2023/05/24 13:00:33;;;;;;;12.37;11.40;;;;;;;;;;5066520;28;20261;-70
2023/05/24 13:03:03;;;;;;;11.83;10.83;;;;;;;;;;5051779;28;21071;-67
2023/05/24 13:05:31;;;;;;;11.20;10.60;;;;;;;;;;5055204;28;20636;-67
2023/05/24 13:07:59;;;;;;;11.37;10.53;;;;;;;;;;5067325;28;20740;-68
2023/05/24 13:10:28;;;;;;;11.93;11.03;;;;;;;;;;5073663;28;21013;-68
2023/05/24 13:12:56;;;;;;;12.07;10.97;;;;;;;;;;5073740;28;20714;-68
2023/05/24 13:15:26;;;;;;;12.30;11.10;;;;;;;;;;5073260;28;20621;-68
2023/05/24 13:17:54;;;;;;;11.70;11.00;;;;;;;;;;5073282;28;20614;-68
2023/05/24 13:20:24;;;;;;;11.57;10.80;;;;;;;;;;5072879;28;20614;-70
2023/05/24 13:22:52;;;;;;;13.77;11.63;;;;;;;;;;5073356;28;20983;-69
2023/05/24 13:25:21;;;;;;;12.50;11.70;;;;;;;;;;5072495;28;20614;-67
2023/05/24 13:27:50;;;;;;;12.50;11.20;;;;;;;;;;5073008;28;20671;-69
2023/05/24 13:30:26;;;;;;;12.47;11.30;;;;;;;;;;5072485;28;20611;-68
2023/05/24 13:32:58;;;;;;;12.90;11.13;;;;;;;;;;5072881;28;20642;-69
2023/05/24 13:35:27;;;;;;;21.43;11.07;;;;;;;;;;5072809;28;20874;-69
2023/05/24 13:37:57;;;;;;;12.23;11.23;;;;;;;;;;5073171;28;20622;-69
2023/05/24 13:40:25;;;;;;;10.50;10.00;;;;;;;;;;5072629;28;20624;-69
2023/05/24 13:42:54;;;;;;;12.30;11.20;;;;;;;;;;5072991;28;20775;-69
2023/05/24 13:45:22;;;;;;;13.00;11.60;;;;;;;;;;5072206;28;20614;-69
2023/05/24 13:47:52;;;;;;;12.17;11.13;;;;;;;;;;5072881;28;20977;-69
2023/05/24 13:50:22;;;;;;;11.83;10.67;;;;;;;;;;5072541;28;20606;-68
2023/05/24 13:52:52;;;;;;;12.63;11.57;;;;;;;;;;5072585;28;20595;-67
2023/05/24 13:55:20;;;;;;;12.27;11.37;;;;;;;;;;5068884;28;20633;-67
2023/05/24 13:57:48;;;;;;;11.97;11.27;;;;;;;;;;5052082;28;20615;-68
2023/05/24 14:00:17;;;;;;;11.27;10.50;;;;;;;;;;5065070;28;21187;-67
2023/05/24 14:02:48;;;;;;;12.23;11.43;;;;;;;;;;5057966;28;21047;-65
2023/05/24 14:05:16;;;;;;;12.50;11.50;;;;;;;;;;5060642;28;20617;-69
2023/05/24 14:07:44;;;;;;;12.53;11.43;;;;;;;;;;5060061;28;20715;-67
2023/05/24 14:10:14;;;;;;;13.20;11.83;;;;;;;;;;5061426;28;20634;-67
2023/05/24 14:12:42;;;;;;;12.90;11.70;;;;;;;;;;5062152;28;20615;-67
2023/05/24 14:15:11;;;;;;;12.83;11.63;;;;;;;;;;5060021;28;20712;-67
2023/05/24 14:17:39;;;;;;;12.50;11.17;;;;;;;;;;5062085;28;20619;-67
2023/05/24 14:20:08;;;;;;;11.63;10.90;;;;;;;;;;5062000;28;20619;-67
2023/05/24 14:22:36;;;;;;;11.73;10.87;;;;;;;;;;5061049;28;20642;-68
2023/05/24 14:25:05;;;;;;;12.23;11.23;;;;;;;;;;5060863;28;20621;-67
2023/05/24 14:27:35;;;;;;;13.23;11.90;;;;;;;;;;5059955;28;20643;-67
2023/05/24 14:30:03;;;;;;;12.90;11.80;;;;;;;;;;5062443;28;20617;-68
2023/05/24 14:32:31;;;;;;;11.67;10.90;;;;;;;;;;5071261;28;20614;-68
2023/05/24 14:34:59;;;;;;;12.17;11.27;;;;;;;;;;5070630;28;20986;-69
2023/05/24 14:37:28;;;;;;;12.40;11.20;;;;;;;;;;5071599;28;21168;-69
2023/05/24 14:39:56;;;;;;;11.27;10.50;;;;;;;;;;5071104;28;20626;-68
2023/05/24 14:42:25;;;;;;;12.20;11.30;;;;;;;;;;5071046;28;20625;-69